createdAt,value
2022-08-23T00:03:50.543Z,72.00
2022-08-23T00:08:05.394Z,72.30
2022-08-23T00:12:21.328Z,72.50
2022-08-23T00:16:37.146Z,72.50
2022-08-23T00:20:53.894Z,72.50
2022-08-23T00:25:11.015Z,72.70
2022-08-23T00:29:27.644Z,72.90
2022-08-23T00:33:42.889Z,73.40
2022-08-23T00:38:32.796Z,73.90
2022-08-23T00:42:53.635Z,74.30
2022-08-23T00:47:26.891Z,74.70
2022-08-23T00:51:53.299Z,75.20
2022-08-23T00:56:10.390Z,75.70
2022-08-23T01:00:25.275Z,76.00
2022-08-23T01:04:41.899Z,77.00
2022-08-23T01:09:01.058Z,76.60
2022-08-23T01:13:18.846Z,77.20
2022-08-23T01:17:39.064Z,78.20
2022-08-23T01:21:59.026Z,77.80
2022-08-23T01:26:15.752Z,78.10
2022-08-23T01:30:39.019Z,78.40
2022-08-23T01:34:53.529Z,78.60
2022-08-23T01:39:09.113Z,78.90
2022-08-23T01:43:25.032Z,79.00
2022-08-23T01:47:48.818Z,79.30
2022-08-23T01:52:03.849Z,79.50
2022-08-23T01:56:20.062Z,79.60
2022-08-23T02:00:45.493Z,79.80
2022-08-23T02:04:59.889Z,80.10
2022-08-23T02:09:17.373Z,80.20
2022-08-23T02:13:32.521Z,80.10
2022-08-23T02:17:48.148Z,80.10
2022-08-23T02:22:02.098Z,80.30
2022-08-23T02:26:16.925Z,80.40
2022-08-23T02:30:32.911Z,80.90
2022-08-23T02:34:51.239Z,81.10
2022-08-23T02:39:20.470Z,81.30
2022-08-23T02:43:36.474Z,81.40
2022-08-23T02:47:53.846Z,81.60
2022-08-23T02:52:13.496Z,81.70
2022-08-23T02:56:27.476Z,81.90
2022-08-23T03:00:44.446Z,82.20
2022-08-23T03:04:58.274Z,82.00
2022-08-23T03:09:16.648Z,81.90
2022-08-23T03:13:31.066Z,82.10
2022-08-23T03:17:45.569Z,82.20
2022-08-23T03:22:03.064Z,82.40
2022-08-23T03:26:18.867Z,82.70
2022-08-23T03:30:33.829Z,82.90
2022-08-23T03:34:48.487Z,83.10
2022-08-23T03:39:02.812Z,83.40
2022-08-23T03:43:18.042Z,83.60
2022-08-23T03:47:31.885Z,84.10
2022-08-23T03:51:46.971Z,84.50
2022-08-23T03:56:00.802Z,84.60
2022-08-23T04:00:20.538Z,85.30
2022-08-23T04:04:37.872Z,84.50
2022-08-23T04:09:17.666Z,84.20
2022-08-23T04:13:33.119Z,83.90
2022-08-23T04:17:50.433Z,83.70
2022-08-23T04:22:05.273Z,83.50
2022-08-23T04:26:30.195Z,83.30
2022-08-23T04:30:44.822Z,83.20
2022-08-23T04:35:02.894Z,83.00
2022-08-23T04:39:17.853Z,83.00
2022-08-23T04:43:32.857Z,83.50
2022-08-23T04:47:46.734Z,83.40
2022-08-23T04:52:01.948Z,83.20
2022-08-23T04:56:17.079Z,82.40
2022-08-23T05:00:30.960Z,81.80
2022-08-23T05:04:45.353Z,81.60
2022-08-23T05:09:02.157Z,81.30
2022-08-23T05:13:17.228Z,81.00
2022-08-23T05:17:31.183Z,80.90
2022-08-23T05:21:45.468Z,80.50
2022-08-23T05:26:01.951Z,80.10
2022-08-23T05:30:25.111Z,79.60
2022-08-23T05:34:40.286Z,79.60
2022-08-23T05:38:57.308Z,79.20
2022-08-23T05:43:12.798Z,79.10
2022-08-23T05:47:28.144Z,78.80
2022-08-23T05:52:14.950Z,78.30
2022-08-23T05:56:32.905Z,77.50
2022-08-23T06:00:48.648Z,76.60
2022-08-23T06:05:03.045Z,76.50
2022-08-23T06:09:19.428Z,75.10
2022-08-23T06:13:33.842Z,74.70
2022-08-23T06:17:49.801Z,74.20
2022-08-23T06:22:04.113Z,73.30
2022-08-23T06:26:25.333Z,73.20
2022-08-23T06:30:40.267Z,71.80
2022-08-23T06:35:38.129Z,71.20
2022-08-23T06:39:59.126Z,70.60
2022-08-23T06:44:33.885Z,70.30
2022-08-23T06:49:05.232Z,69.60
2022-08-23T06:53:20.898Z,69.60
2022-08-23T06:57:46.442Z,69.80
2022-08-23T07:02:25.339Z,69.90
2022-08-23T07:06:45.035Z,69.90
2022-08-23T07:11:00.318Z,69.90
2022-08-23T07:15:14.786Z,70.00
2022-08-23T07:19:34.162Z,69.60
2022-08-23T07:23:48.078Z,69.10
2022-08-23T07:28:07.446Z,68.60
2022-08-23T07:32:24.328Z,68.10
2022-08-23T07:36:43.530Z,67.60
2022-08-23T07:41:00.613Z,67.20
2022-08-23T07:45:16.714Z,66.50
2022-08-23T07:49:34.977Z,65.30
2022-08-23T07:53:50.519Z,64.90
2022-08-23T07:58:06.870Z,64.60
2022-08-23T08:02:41.015Z,64.50
2022-08-23T08:07:18.819Z,64.10
2022-08-23T08:11:36.691Z,63.70
2022-08-23T08:15:51.960Z,62.70
2022-08-23T08:20:10.429Z,61.80
2022-08-23T08:24:43.609Z,60.90
2022-08-23T08:28:59.619Z,60.00
2022-08-23T08:33:14.890Z,59.40
2022-08-23T08:37:30.987Z,58.90
2022-08-23T08:42:04.533Z,57.90
2022-08-23T08:46:25.991Z,57.60
2022-08-23T08:50:43.401Z,57.40
2022-08-23T08:55:05.103Z,56.80
2022-08-23T08:59:22.937Z,56.40
2022-08-23T09:03:37.990Z,56.30
2022-08-23T09:08:09.502Z,56.40
2022-08-23T09:12:38.489Z,56.50
2022-08-23T09:16:54.915Z,56.40
2022-08-23T09:21:10.984Z,56.20
2022-08-23T09:25:25.898Z,55.50
2022-08-23T09:30:03.442Z,55.10
2022-08-23T09:34:21.020Z,54.50
2022-08-23T09:39:07.428Z,53.60
2022-08-23T09:43:26.169Z,52.10
2022-08-23T09:47:44.877Z,50.30
2022-08-23T09:52:16.096Z,48.80
2022-08-23T09:56:42.380Z,47.10
2022-08-23T10:01:11.946Z,45.80
2022-08-23T10:05:39.335Z,42.90
2022-08-23T10:10:15.961Z,39.80
2022-08-23T10:14:32.976Z,37.70
2022-08-23T10:18:56.575Z,36.40
2022-08-23T10:23:25.871Z,35.00
2022-08-23T10:28:12.853Z,33.00
2022-08-23T10:32:36.149Z,32.40
2022-08-23T10:37:01.484Z,31.60
2022-08-23T10:41:28.937Z,30.50
2022-08-23T10:45:45.451Z,30.00
2022-08-23T10:50:14.690Z,29.40
2022-08-23T10:54:45.899Z,29.10
2022-08-23T10:59:14.477Z,30.30
2022-08-23T11:03:31.528Z,32.80
2022-08-23T11:08:00.287Z,35.40
2022-08-23T11:12:23.706Z,38.00
2022-08-23T11:16:43.115Z,40.00
2022-08-23T11:21:33.717Z,41.60
2022-08-23T11:25:53.213Z,42.40
2022-08-23T11:30:46.104Z,42.40
2022-08-23T11:35:12.221Z,40.00
2022-08-23T11:39:29.037Z,37.70
2022-08-23T11:43:47.086Z,35.80
2022-08-23T11:48:20.616Z,33.70
2022-08-23T11:53:17.030Z,32.70
2022-08-23T11:57:46.525Z,32.90
2022-08-23T12:02:00.544Z,34.10
2022-08-23T12:06:43.632Z,36.00
2022-08-23T12:11:11.265Z,37.50
2022-08-23T12:16:06.814Z,37.50
2022-08-23T12:20:33.428Z,38.40
2022-08-23T12:24:52.817Z,39.70
2022-08-23T12:29:19.648Z,40.80
2022-08-23T12:33:41.937Z,41.90
2022-08-23T12:38:04.022Z,42.80
2022-08-23T12:42:20.157Z,42.90
2022-08-23T12:46:38.965Z,42.80
2022-08-23T12:50:56.151Z,43.10
2022-08-23T12:55:16.074Z,43.00
2022-08-23T12:59:37.428Z,43.40
2022-08-23T13:03:57.574Z,43.70
2022-08-23T13:08:16.604Z,43.80
2022-08-23T13:12:30.605Z,43.60
2022-08-23T13:16:46.065Z,43.10
2022-08-23T13:21:26.773Z,42.80
2022-08-23T13:25:43.144Z,43.30
2022-08-23T13:30:04.115Z,43.70
2022-08-23T13:34:34.426Z,44.40
2022-08-23T13:38:50.651Z,43.80
2022-08-23T13:43:10.062Z,43.80
2022-08-23T13:47:36.478Z,43.70
2022-08-23T13:56:50.881Z,43.50
2022-08-23T14:01:07.976Z,43.20
2022-08-23T14:05:25.601Z,42.60
2022-08-23T14:16:32.168Z,42.60
2022-08-23T14:20:34.055Z,42.40
2022-08-23T14:24:57.842Z,42.60
2022-08-23T14:29:15.384Z,42.80
2022-08-23T14:33:31.295Z,42.70
2022-08-23T14:42:57.699Z,43.20
2022-08-23T14:47:15.267Z,44.00
2022-08-23T14:51:33.480Z,44.40
2022-08-23T14:56:01.143Z,44.60
2022-08-23T15:06:33.867Z,44.40
2022-08-23T15:13:14.310Z,44.40
2022-08-23T15:15:28.509Z,44.50
2022-08-23T15:20:31.066Z,44.60
2022-08-23T15:24:46.486Z,44.70
2022-08-23T15:29:00.938Z,45.00
2022-08-23T15:33:15.846Z,44.80
2022-08-23T15:37:29.915Z,45.60
2022-08-23T15:41:45.414Z,46.10
2022-08-23T15:46:00.078Z,46.20
2022-08-23T15:50:14.568Z,46.80
2022-08-23T15:54:28.603Z,46.90
2022-08-23T15:58:44.235Z,46.80
2022-08-23T16:03:18.446Z,46.60
2022-08-23T16:07:33.280Z,47.10
2022-08-23T16:11:49.731Z,47.70
2022-08-23T16:16:06.013Z,47.90
2022-08-23T16:20:20.262Z,48.00
2022-08-23T16:24:34.664Z,48.30
2022-08-23T16:28:50.729Z,48.50
2022-08-23T16:33:08.498Z,48.80
2022-08-23T16:37:22.524Z,48.80
2022-08-23T16:41:36.424Z,49.10
2022-08-23T16:45:50.623Z,48.80
2022-08-23T16:50:06.494Z,48.70
2022-08-23T16:54:21.379Z,48.60
2022-08-23T16:58:35.696Z,48.60
2022-08-23T17:02:49.850Z,48.80
2022-08-23T17:07:05.246Z,48.70
2022-08-23T17:11:20.650Z,48.80
2022-08-23T17:15:37.551Z,48.90
2022-08-23T17:19:51.412Z,48.90
2022-08-23T17:24:07.384Z,48.90
2022-08-23T17:28:21.519Z,49.50
2022-08-23T17:32:36.280Z,49.60
2022-08-23T17:36:53.083Z,49.70
2022-08-23T17:41:08.541Z,49.50
2022-08-23T17:45:23.022Z,49.20
2022-08-23T17:49:37.000Z,49.20
2022-08-23T17:53:51.957Z,49.30
2022-08-23T17:58:07.345Z,49.60
2022-08-23T18:02:21.768Z,49.90
2022-08-23T18:06:36.670Z,50.30
2022-08-23T18:10:50.574Z,50.60
2022-08-23T18:15:06.871Z,51.10
2022-08-23T18:19:20.792Z,51.60
2022-08-23T18:23:34.617Z,52.00
2022-08-23T18:28:05.508Z,52.60
2022-08-23T18:32:21.054Z,53.10
2022-08-23T18:36:35.712Z,53.50
2022-08-23T18:40:50.367Z,54.80
2022-08-23T18:45:06.064Z,54.50
2022-08-23T18:49:21.618Z,55.10
2022-08-23T18:53:36.429Z,55.50
2022-08-23T18:57:50.386Z,56.30
2022-08-23T19:02:04.712Z,56.60
2022-08-23T19:06:20.118Z,56.90
2022-08-23T19:10:34.393Z,57.40
2022-08-23T19:14:48.961Z,57.70
2022-08-23T19:19:02.989Z,58.00
2022-08-23T19:23:21.345Z,58.30
2022-08-23T19:27:36.375Z,58.50
2022-08-23T19:31:51.029Z,58.70
2022-08-23T19:36:06.338Z,58.90
2022-08-23T19:40:27.159Z,59.30
2022-08-23T19:44:41.082Z,59.70
2022-08-23T19:48:55.004Z,59.90
2022-08-23T19:53:09.673Z,60.10
2022-08-23T19:57:24.904Z,60.30
2022-08-23T20:01:38.761Z,60.60
2022-08-23T20:05:52.960Z,61.00
2022-08-23T20:10:08.560Z,61.60
2022-08-23T20:14:25.342Z,62.10
2022-08-23T20:18:39.120Z,62.40
2022-08-23T20:23:10.668Z,62.80
2022-08-23T20:27:30.646Z,63.00
2022-08-23T20:31:54.704Z,63.40
2022-08-23T20:36:09.208Z,63.70
2022-08-23T20:40:25.924Z,64.30
2022-08-23T20:44:39.803Z,64.50
2022-08-23T20:48:57.462Z,64.70
2022-08-23T20:53:12.771Z,65.30
2022-08-23T20:57:28.647Z,65.70
2022-08-23T21:01:51.261Z,65.90
2022-08-23T21:06:09.746Z,66.60
2022-08-23T21:10:23.848Z,67.10
2022-08-23T21:14:38.087Z,67.10
2022-08-23T21:18:55.356Z,67.20
2022-08-23T21:23:11.079Z,67.60
2022-08-23T21:27:25.739Z,67.90
2022-08-23T21:31:40.756Z,68.00
2022-08-23T21:35:54.840Z,68.30
2022-08-23T21:40:12.648Z,68.80
2022-08-23T21:44:26.684Z,69.20
2022-08-23T21:48:40.980Z,69.50
2022-08-23T21:52:56.654Z,70.10
2022-08-23T21:57:12.639Z,70.40
2022-08-23T22:01:27.266Z,70.80
2022-08-23T22:05:41.610Z,71.10
2022-08-23T22:09:55.651Z,71.40
2022-08-23T22:14:12.019Z,71.50
2022-08-23T22:18:25.875Z,71.90
2022-08-23T22:22:39.669Z,72.20
2022-08-23T22:26:53.566Z,72.50
2022-08-23T22:31:09.834Z,72.70
2022-08-23T22:35:23.904Z,73.10
2022-08-23T22:39:37.795Z,74.20
2022-08-23T22:43:52.749Z,73.80
2022-08-23T22:48:08.124Z,74.10
2022-08-23T22:52:22.061Z,74.40
2022-08-23T22:56:40.262Z,74.80
2022-08-23T23:00:54.804Z,75.00
2022-08-23T23:05:12.478Z,75.30
2022-08-23T23:09:27.622Z,75.70
2022-08-23T23:13:42.420Z,76.30
2022-08-23T23:17:56.670Z,76.70
2022-08-23T23:22:12.401Z,76.90
2022-08-23T23:26:26.666Z,77.10
2022-08-23T23:30:41.603Z,77.20
2022-08-23T23:34:55.419Z,77.30
2022-08-23T23:39:17.704Z,77.30
2022-08-23T23:43:31.537Z,77.70
2022-08-23T23:47:45.457Z,78.10
2022-08-23T23:51:59.507Z,78.10
2022-08-23T23:56:17.645Z,78.30
